sensor_id;sensor_type;location;lat;lon;timestamp;P1;durP1;ratioP1;P2;durP2;ratioP2
76117;SDS011;64851;50.232;20.364;2023-12-28T00:00:26;17.90;;;9.00;;
76117;SDS011;64851;50.232;20.364;2023-12-28T00:03:42;21.20;;;9.00;;
76117;SDS011;64851;50.232;20.364;2023-12-28T00:06:17;16.80;;;10.50;;
76117;SDS011;64851;50.232;20.364;2023-12-28T00:09:05;22.10;;;9.70;;
76117;SDS011;64851;50.232;20.364;2023-12-28T00:11:40;20.40;;;9.70;;
76117;SDS011;64851;50.232;20.364;2023-12-28T00:14:28;24.90;;;14.10;;
76117;SDS011;64851;50.232;20.364;2023-12-28T00:17:03;17.50;;;10.30;;
76117;SDS011;64851;50.232;20.364;2023-12-28T00:19:52;26.50;;;17.00;;
76117;SDS011;64851;50.232;20.364;2023-12-28T00:22:27;25.00;;;12.70;;
76117;SDS011;64851;50.232;20.364;2023-12-28T00:25:24;26.70;;;16.40;;
76117;SDS011;64851;50.232;20.364;2023-12-28T00:27:59;27.70;;;16.80;;
76117;SDS011;64851;50.232;20.364;2023-12-28T00:30:47;23.10;;;10.30;;
76117;SDS011;64851;50.232;20.364;2023-12-28T00:33:28;21.70;;;8.40;;
76117;SDS011;64851;50.232;20.364;2023-12-28T00:36:16;19.20;;;8.40;;
76117;SDS011;64851;50.232;20.364;2023-12-28T00:38:57;18.40;;;7.90;;
76117;SDS011;64851;50.232;20.364;2023-12-28T00:41:39;24.40;;;11.80;;
76117;SDS011;64851;50.232;20.364;2023-12-28T00:44:21;30.80;;;18.30;;
76117;SDS011;64851;50.232;20.364;2023-12-28T00:47:02;24.10;;;11.70;;
76117;SDS011;64851;50.232;20.364;2023-12-28T00:49:43;22.40;;;9.60;;
76117;SDS011;64851;50.232;20.364;2023-12-28T00:52:33;19.90;;;9.90;;
76117;SDS011;64851;50.232;20.364;2023-12-28T00:55:10;23.90;;;11.30;;
76117;SDS011;64851;50.232;20.364;2023-12-28T00:57:58;23.10;;;13.50;;
76117;SDS011;64851;50.232;20.364;2023-12-28T01:00:33;25.20;;;13.00;;
76117;SDS011;64851;50.232;20.364;2023-12-28T01:03:28;28.80;;;16.10;;
76117;SDS011;64851;50.232;20.364;2023-12-28T01:06:23;21.60;;;10.30;;
76117;SDS011;64851;50.232;20.364;2023-12-28T01:09:03;22.50;;;10.20;;
76117;SDS011;64851;50.232;20.364;2023-12-28T01:11:52;19.40;;;10.50;;
76117;SDS011;64851;50.232;20.364;2023-12-28T01:14:28;21.80;;;11.80;;
76117;SDS011;64851;50.232;20.364;2023-12-28T01:17:16;26.80;;;15.00;;
76117;SDS011;64851;50.232;20.364;2023-12-28T01:19:52;21.00;;;9.00;;
76117;SDS011;64851;50.232;20.364;2023-12-28T01:22:40;27.30;;;12.90;;
76117;SDS011;64851;50.232;20.364;2023-12-28T01:25:15;25.60;;;13.80;;
76117;SDS011;64851;50.232;20.364;2023-12-28T01:28:03;22.40;;;10.60;;
76117;SDS011;64851;50.232;20.364;2023-12-28T01:30:39;22.00;;;10.60;;
76117;SDS011;64851;50.232;20.364;2023-12-28T01:33:27;24.20;;;9.70;;
76117;SDS011;64851;50.232;20.364;2023-12-28T01:36:02;24.30;;;11.90;;
76117;SDS011;64851;50.232;20.364;2023-12-28T01:39:19;16.30;;;8.80;;
76117;SDS011;64851;50.232;20.364;2023-12-28T01:42:16;18.70;;;8.70;;
76117;SDS011;64851;50.232;20.364;2023-12-28T01:44:51;17.80;;;9.40;;
76117;SDS011;64851;50.232;20.364;2023-12-28T01:47:46;22.10;;;9.70;;
76117;SDS011;64851;50.232;20.364;2023-12-28T01:50:43;16.80;;;9.90;;
76117;SDS011;64851;50.232;20.364;2023-12-28T01:53:25;21.10;;;8.30;;
76117;SDS011;64851;50.232;20.364;2023-12-28T01:56:13;16.20;;;7.50;;
76117;SDS011;64851;50.232;20.364;2023-12-28T01:58:49;16.90;;;7.10;;
76117;SDS011;64851;50.232;20.364;2023-12-28T02:01:39;12.70;;;6.20;;
76117;SDS011;64851;50.232;20.364;2023-12-28T02:04:23;17.80;;;7.50;;
76117;SDS011;64851;50.232;20.364;2023-12-28T02:07:04;19.40;;;7.40;;
76117;SDS011;64851;50.232;20.364;2023-12-28T02:09:46;15.90;;;7.40;;
76117;SDS011;64851;50.232;20.364;2023-12-28T02:12:36;16.80;;;6.70;;
76117;SDS011;64851;50.232;20.364;2023-12-28T02:15:10;16.00;;;7.60;;
76117;SDS011;64851;50.232;20.364;2023-12-28T02:18:13;17.30;;;6.90;;
76117;SDS011;64851;50.232;20.364;2023-12-28T02:20:58;20.70;;;11.00;;
76117;SDS011;64851;50.232;20.364;2023-12-28T02:23:47;25.50;;;14.50;;
76117;SDS011;64851;50.232;20.364;2023-12-28T02:26:29;19.50;;;11.60;;
76117;SDS011;64851;50.232;20.364;2023-12-28T02:29:10;16.60;;;7.00;;
76117;SDS011;64851;50.232;20.364;2023-12-28T02:31:53;19.60;;;10.40;;
76117;SDS011;64851;50.232;20.364;2023-12-28T02:34:47;14.00;;;6.90;;
76117;SDS011;64851;50.232;20.364;2023-12-28T02:37:44;14.20;;;8.10;;
76117;SDS011;64851;50.232;20.364;2023-12-28T02:40:22;18.80;;;8.70;;
76117;SDS011;64851;50.232;20.364;2023-12-28T02:43:12;18.20;;;10.80;;
76117;SDS011;64851;50.232;20.364;2023-12-28T02:45:47;18.60;;;10.60;;
76117;SDS011;64851;50.232;20.364;2023-12-28T02:48:37;16.00;;;10.30;;
76117;SDS011;64851;50.232;20.364;2023-12-28T02:51:14;15.00;;;8.10;;
76117;SDS011;64851;50.232;20.364;2023-12-28T02:54:04;12.20;;;5.30;;
76117;SDS011;64851;50.232;20.364;2023-12-28T02:56:40;13.20;;;5.10;;
76117;SDS011;64851;50.232;20.364;2023-12-28T02:59:28;11.00;;;4.70;;
76117;SDS011;64851;50.232;20.364;2023-12-28T03:02:09;11.70;;;5.30;;
76117;SDS011;64851;50.232;20.364;2023-12-28T03:04:57;11.40;;;4.90;;
76117;SDS011;64851;50.232;20.364;2023-12-28T03:07:38;17.50;;;10.00;;
76117;SDS011;64851;50.232;20.364;2023-12-28T03:10:20;12.70;;;4.50;;
76117;SDS011;64851;50.232;20.364;2023-12-28T03:13:01;10.60;;;5.40;;
76117;SDS011;64851;50.232;20.364;2023-12-28T03:15:42;12.10;;;4.80;;
76117;SDS011;64851;50.232;20.364;2023-12-28T03:18:23;11.70;;;4.90;;
76117;SDS011;64851;50.232;20.364;2023-12-28T03:21:05;14.60;;;5.40;;
76117;SDS011;64851;50.232;20.364;2023-12-28T03:23:46;13.30;;;5.60;;
76117;SDS011;64851;50.232;20.364;2023-12-28T03:26:38;12.50;;;5.30;;
76117;SDS011;64851;50.232;20.364;2023-12-28T03:29:12;13.20;;;4.80;;
76117;SDS011;64851;50.232;20.364;2023-12-28T03:32:00;11.10;;;4.60;;
76117;SDS011;64851;50.232;20.364;2023-12-28T03:34:41;12.40;;;4.30;;
76117;SDS011;64851;50.232;20.364;2023-12-28T03:37:36;13.60;;;4.70;;
76117;SDS011;64851;50.232;20.364;2023-12-28T03:40:32;10.70;;;4.60;;
76117;SDS011;64851;50.232;20.364;2023-12-28T03:43:07;7.90;;;3.80;;
76117;SDS011;64851;50.232;20.364;2023-12-28T03:46:02;9.10;;;4.10;;
76117;SDS011;64851;50.232;20.364;2023-12-28T03:48:57;10.50;;;5.50;;
76117;SDS011;64851;50.232;20.364;2023-12-28T03:51:32;16.80;;;8.10;;
76117;SDS011;64851;50.232;20.364;2023-12-28T03:54:21;13.40;;;6.70;;
76117;SDS011;64851;50.232;20.364;2023-12-28T03:56:56;13.10;;;7.30;;
76117;SDS011;64851;50.232;20.364;2023-12-28T03:59:44;11.30;;;5.10;;
76117;SDS011;64851;50.232;20.364;2023-12-28T04:02:26;12.10;;;4.60;;
76117;SDS011;64851;50.232;20.364;2023-12-28T04:05:16;11.30;;;5.00;;
76117;SDS011;64851;50.232;20.364;2023-12-28T04:07:51;10.90;;;5.00;;
76117;SDS011;64851;50.232;20.364;2023-12-28T04:10:39;9.90;;;4.40;;
76117;SDS011;64851;50.232;20.364;2023-12-28T04:13:15;9.10;;;4.60;;
76117;SDS011;64851;50.232;20.364;2023-12-28T04:16:13;11.20;;;4.20;;
76117;SDS011;64851;50.232;20.364;2023-12-28T04:21:48;9.00;;;2.50;;
76117;SDS011;64851;50.232;20.364;2023-12-28T04:24:37;6.60;;;2.70;;
76117;SDS011;64851;50.232;20.364;2023-12-28T04:27:12;10.40;;;3.70;;
76117;SDS011;64851;50.232;20.364;2023-12-28T04:30:00;9.20;;;4.00;;
76117;SDS011;64851;50.232;20.364;2023-12-28T04:32:35;10.80;;;4.20;;
76117;SDS011;64851;50.232;20.364;2023-12-28T04:35:30;6.80;;;3.30;;
76117;SDS011;64851;50.232;20.364;2023-12-28T04:38:25;7.00;;;3.50;;
76117;SDS011;64851;50.232;20.364;2023-12-28T04:41:00;9.90;;;4.30;;
76117;SDS011;64851;50.232;20.364;2023-12-28T04:43:58;6.30;;;3.00;;
76117;SDS011;64851;50.232;20.364;2023-12-28T04:46:53;10.20;;;4.20;;
76117;SDS011;64851;50.232;20.364;2023-12-28T04:49:50;9.00;;;3.60;;
76117;SDS011;64851;50.232;20.364;2023-12-28T04:52:25;7.00;;;3.50;;
76117;SDS011;64851;50.232;20.364;2023-12-28T04:55:13;8.90;;;3.20;;
76117;SDS011;64851;50.232;20.364;2023-12-28T04:57:48;5.00;;;2.20;;
76117;SDS011;64851;50.232;20.364;2023-12-28T05:00:43;8.00;;;3.40;;
76117;SDS011;64851;50.232;20.364;2023-12-28T05:03:39;12.60;;;3.40;;
76117;SDS011;64851;50.232;20.364;2023-12-28T05:06:14;10.10;;;3.70;;
76117;SDS011;64851;50.232;20.364;2023-12-28T05:09:03;8.20;;;3.70;;
76117;SDS011;64851;50.232;20.364;2023-12-28T05:11:40;9.90;;;4.30;;
76117;SDS011;64851;50.232;20.364;2023-12-28T05:14:35;8.10;;;3.70;;
76117;SDS011;64851;50.232;20.364;2023-12-28T05:17:30;8.00;;;3.60;;
76117;SDS011;64851;50.232;20.364;2023-12-28T05:20:06;8.20;;;3.10;;
76117;SDS011;64851;50.232;20.364;2023-12-28T05:22:56;8.20;;;3.40;;
76117;SDS011;64851;50.232;20.364;2023-12-28T05:25:31;10.50;;;3.90;;
76117;SDS011;64851;50.232;20.364;2023-12-28T05:28:28;11.00;;;5.50;;
76117;SDS011;64851;50.232;20.364;2023-12-28T05:31:05;13.70;;;4.90;;
76117;SDS011;64851;50.232;20.364;2023-12-28T05:33:54;13.80;;;6.30;;
76117;SDS011;64851;50.232;20.364;2023-12-28T05:36:43;11.30;;;4.90;;
76117;SDS011;64851;50.232;20.364;2023-12-28T05:39:39;14.60;;;4.90;;
76117;SDS011;64851;50.232;20.364;2023-12-28T05:42:36;9.20;;;5.00;;
76117;SDS011;64851;50.232;20.364;2023-12-28T05:45:13;11.00;;;4.40;;
76117;SDS011;64851;50.232;20.364;2023-12-28T05:48:08;10.70;;;4.60;;
76117;SDS011;64851;50.232;20.364;2023-12-28T05:51:03;14.30;;;5.90;;
76117;SDS011;64851;50.232;20.364;2023-12-28T05:53:40;10.20;;;4.70;;
76117;SDS011;64851;50.232;20.364;2023-12-28T05:56:28;10.70;;;4.50;;
76117;SDS011;64851;50.232;20.364;2023-12-28T05:59:03;11.10;;;3.80;;
76117;SDS011;64851;50.232;20.364;2023-12-28T06:01:51;9.60;;;3.70;;
76117;SDS011;64851;50.232;20.364;2023-12-28T06:04:27;8.10;;;4.20;;
76117;SDS011;64851;50.232;20.364;2023-12-28T06:07:16;10.80;;;4.30;;
76117;SDS011;64851;50.232;20.364;2023-12-28T06:09:52;10.20;;;4.80;;
76117;SDS011;64851;50.232;20.364;2023-12-28T06:12:41;9.40;;;4.50;;
76117;SDS011;64851;50.232;20.364;2023-12-28T06:15:22;8.90;;;4.00;;
76117;SDS011;64851;50.232;20.364;2023-12-28T06:18:04;9.40;;;4.30;;
76117;SDS011;64851;50.232;20.364;2023-12-28T06:20:46;9.70;;;4.20;;
76117;SDS011;64851;50.232;20.364;2023-12-28T06:23:27;11.60;;;4.90;;
76117;SDS011;64851;50.232;20.364;2023-12-28T06:26:09;9.70;;;5.40;;
76117;SDS011;64851;50.232;20.364;2023-12-28T06:28:54;13.90;;;5.30;;
76117;SDS011;64851;50.232;20.364;2023-12-28T06:31:35;10.20;;;5.20;;
76117;SDS011;64851;50.232;20.364;2023-12-28T06:34:18;12.80;;;5.10;;
76117;SDS011;64851;50.232;20.364;2023-12-28T06:37:08;11.40;;;4.10;;
76117;SDS011;64851;50.232;20.364;2023-12-28T06:40:03;7.50;;;3.30;;
76117;SDS011;64851;50.232;20.364;2023-12-28T06:42:39;8.90;;;3.50;;
76117;SDS011;64851;50.232;20.364;2023-12-28T06:45:34;14.90;;;6.00;;
76117;SDS011;64851;50.232;20.364;2023-12-28T06:48:29;18.30;;;6.00;;
76117;SDS011;64851;50.232;20.364;2023-12-28T06:51:04;10.40;;;5.40;;
76117;SDS011;64851;50.232;20.364;2023-12-28T06:53:52;10.30;;;4.70;;
76117;SDS011;64851;50.232;20.364;2023-12-28T06:56:27;12.20;;;4.30;;
76117;SDS011;64851;50.232;20.364;2023-12-28T06:59:22;8.30;;;3.40;;
76117;SDS011;64851;50.232;20.364;2023-12-28T07:01:57;11.70;;;5.60;;
76117;SDS011;64851;50.232;20.364;2023-12-28T07:04:45;14.20;;;6.50;;
76117;SDS011;64851;50.232;20.364;2023-12-28T07:07:20;13.90;;;6.90;;
76117;SDS011;64851;50.232;20.364;2023-12-28T07:10:15;14.80;;;6.70;;
76117;SDS011;64851;50.232;20.364;2023-12-28T07:12:51;14.80;;;6.20;;
76117;SDS011;64851;50.232;20.364;2023-12-28T07:15:42;12.00;;;5.20;;
76117;SDS011;64851;50.232;20.364;2023-12-28T07:18:18;14.90;;;6.20;;
76117;SDS011;64851;50.232;20.364;2023-12-28T07:21:08;14.40;;;7.30;;
76117;SDS011;64851;50.232;20.364;2023-12-28T07:23:44;12.20;;;6.00;;
76117;SDS011;64851;50.232;20.364;2023-12-28T07:26:39;13.50;;;4.50;;
76117;SDS011;64851;50.232;20.364;2023-12-28T07:29:34;12.50;;;6.30;;
76117;SDS011;64851;50.232;20.364;2023-12-28T07:32:09;10.80;;;4.40;;
76117;SDS011;64851;50.232;20.364;2023-12-28T07:34:58;11.20;;;4.50;;
76117;SDS011;64851;50.232;20.364;2023-12-28T07:37:34;9.10;;;4.60;;
76117;SDS011;64851;50.232;20.364;2023-12-28T07:40:29;10.40;;;4.20;;
76117;SDS011;64851;50.232;20.364;2023-12-28T07:43:24;7.70;;;3.90;;
76117;SDS011;64851;50.232;20.364;2023-12-28T07:45:59;8.30;;;3.80;;
76117;SDS011;64851;50.232;20.364;2023-12-28T07:48:54;9.90;;;3.80;;
76117;SDS011;64851;50.232;20.364;2023-12-28T07:51:49;7.70;;;4.10;;
76117;SDS011;64851;50.232;20.364;2023-12-28T07:54:24;8.60;;;3.80;;
76117;SDS011;64851;50.232;20.364;2023-12-28T07:57:12;9.00;;;3.60;;
76117;SDS011;64851;50.232;20.364;2023-12-28T07:59:47;7.10;;;3.50;;
76117;SDS011;64851;50.232;20.364;2023-12-28T08:02:44;8.90;;;3.90;;
76117;SDS011;64851;50.232;20.364;2023-12-28T08:05:39;8.20;;;4.20;;
76117;SDS011;64851;50.232;20.364;2023-12-28T08:08:35;11.40;;;5.00;;
76117;SDS011;64851;50.232;20.364;2023-12-28T08:11:12;14.80;;;6.80;;
76117;SDS011;64851;50.232;20.364;2023-12-28T08:14:00;26.20;;;11.30;;
76117;SDS011;64851;50.232;20.364;2023-12-28T08:16:36;31.10;;;12.70;;
76117;SDS011;64851;50.232;20.364;2023-12-28T08:19:31;14.60;;;6.90;;
76117;SDS011;64851;50.232;20.364;2023-12-28T08:22:06;9.80;;;6.10;;
76117;SDS011;64851;50.232;20.364;2023-12-28T08:25:02;13.30;;;6.00;;
76117;SDS011;64851;50.232;20.364;2023-12-28T08:27:37;14.70;;;7.10;;
76117;SDS011;64851;50.232;20.364;2023-12-28T08:30:25;13.20;;;7.10;;
76117;SDS011;64851;50.232;20.364;2023-12-28T08:33:08;13.90;;;7.10;;
76117;SDS011;64851;50.232;20.364;2023-12-28T08:35:57;18.20;;;8.40;;
76117;SDS011;64851;50.232;20.364;2023-12-28T08:38:38;15.80;;;8.50;;
76117;SDS011;64851;50.232;20.364;2023-12-28T08:41:19;16.40;;;8.90;;
76117;SDS011;64851;50.232;20.364;2023-12-28T08:44:01;20.40;;;8.50;;
76117;SDS011;64851;50.232;20.364;2023-12-28T08:46:49;19.00;;;9.30;;
76117;SDS011;64851;50.232;20.364;2023-12-28T08:49:30;15.40;;;8.00;;
76117;SDS011;64851;50.232;20.364;2023-12-28T08:52:19;16.40;;;8.40;;
76117;SDS011;64851;50.232;20.364;2023-12-28T08:55:00;15.80;;;8.60;;
76117;SDS011;64851;50.232;20.364;2023-12-28T08:57:48;16.00;;;8.40;;
76117;SDS011;64851;50.232;20.364;2023-12-28T09:00:22;19.90;;;8.80;;
76117;SDS011;64851;50.232;20.364;2023-12-28T09:03:10;20.70;;;8.00;;
76117;SDS011;64851;50.232;20.364;2023-12-28T09:05:44;18.70;;;8.90;;
76117;SDS011;64851;50.232;20.364;2023-12-28T09:08:33;18.20;;;8.80;;
76117;SDS011;64851;50.232;20.364;2023-12-28T09:11:14;17.50;;;8.70;;
76117;SDS011;64851;50.232;20.364;2023-12-28T09:13:56;18.40;;;8.30;;
76117;SDS011;64851;50.232;20.364;2023-12-28T09:16:37;23.30;;;8.00;;
76117;SDS011;64851;50.232;20.364;2023-12-28T09:19:25;15.10;;;7.90;;
76117;SDS011;64851;50.232;20.364;2023-12-28T09:21:59;14.50;;;7.80;;
76117;SDS011;64851;50.232;20.364;2023-12-28T09:24:47;16.00;;;8.80;;
76117;SDS011;64851;50.232;20.364;2023-12-28T09:27:28;16.30;;;8.10;;
76117;SDS011;64851;50.232;20.364;2023-12-28T09:30:16;15.30;;;9.60;;
76117;SDS011;64851;50.232;20.364;2023-12-28T09:32:52;15.20;;;7.20;;
76117;SDS011;64851;50.232;20.364;2023-12-28T09:35:42;16.20;;;7.70;;
76117;SDS011;64851;50.232;20.364;2023-12-28T09:38:27;16.90;;;8.00;;
76117;SDS011;64851;50.232;20.364;2023-12-28T09:41:12;13.30;;;6.60;;
76117;SDS011;64851;50.232;20.364;2023-12-28T09:44:03;13.50;;;7.60;;
76117;SDS011;64851;50.232;20.364;2023-12-28T09:47:01;16.80;;;8.20;;
76117;SDS011;64851;50.232;20.364;2023-12-28T09:49:42;15.30;;;8.30;;
76117;SDS011;64851;50.232;20.364;2023-12-28T09:52:25;19.50;;;10.00;;
76117;SDS011;64851;50.232;20.364;2023-12-28T09:55:06;20.00;;;11.40;;
76117;SDS011;64851;50.232;20.364;2023-12-28T09:57:54;22.60;;;12.30;;
76117;SDS011;64851;50.232;20.364;2023-12-28T10:00:36;21.20;;;11.50;;
76117;SDS011;64851;50.232;20.364;2023-12-28T10:03:17;17.90;;;9.90;;
76117;SDS011;64851;50.232;20.364;2023-12-28T10:05:58;19.10;;;9.90;;
76117;SDS011;64851;50.232;20.364;2023-12-28T10:08:46;17.20;;;9.10;;
76117;SDS011;64851;50.232;20.364;2023-12-28T10:11:30;17.40;;;8.30;;
76117;SDS011;64851;50.232;20.364;2023-12-28T10:14:12;17.50;;;9.10;;
76117;SDS011;64851;50.232;20.364;2023-12-28T10:16:54;21.30;;;10.30;;
76117;SDS011;64851;50.232;20.364;2023-12-28T10:19:36;22.50;;;9.80;;
76117;SDS011;64851;50.232;20.364;2023-12-28T10:22:20;20.30;;;11.20;;
76117;SDS011;64851;50.232;20.364;2023-12-28T10:25:08;19.60;;;10.10;;
76117;SDS011;64851;50.232;20.364;2023-12-28T10:27:50;18.00;;;10.40;;
76117;SDS011;64851;50.232;20.364;2023-12-28T10:30:32;20.60;;;11.00;;
76117;SDS011;64851;50.232;20.364;2023-12-28T10:33:13;20.00;;;11.10;;
76117;SDS011;64851;50.232;20.364;2023-12-28T10:35:55;22.60;;;10.70;;
76117;SDS011;64851;50.232;20.364;2023-12-28T10:38:46;18.40;;;10.30;;
76117;SDS011;64851;50.232;20.364;2023-12-28T10:41:42;17.70;;;9.60;;
76117;SDS011;64851;50.232;20.364;2023-12-28T10:44:19;17.10;;;9.70;;
76117;SDS011;64851;50.232;20.364;2023-12-28T10:47:15;16.10;;;9.20;;
76117;SDS011;64851;50.232;20.364;2023-12-28T10:49:53;18.40;;;10.40;;
76117;SDS011;64851;50.232;20.364;2023-12-28T10:52:44;18.90;;;10.40;;
76117;SDS011;64851;50.232;20.364;2023-12-28T10:58:16;18.70;;;10.60;;
76117;SDS011;64851;50.232;20.364;2023-12-28T11:01:02;20.70;;;9.90;;
76117;SDS011;64851;50.232;20.364;2023-12-28T11:03:46;16.40;;;9.30;;
76117;SDS011;64851;50.232;20.364;2023-12-28T11:06:28;16.30;;;8.90;;
76117;SDS011;64851;50.232;20.364;2023-12-28T11:09:18;21.00;;;10.20;;
76117;SDS011;64851;50.232;20.364;2023-12-28T11:11:53;17.70;;;8.60;;
76117;SDS011;64851;50.232;20.364;2023-12-28T11:14:43;18.00;;;9.70;;
76117;SDS011;64851;50.232;20.364;2023-12-28T11:17:20;18.20;;;10.00;;
76117;SDS011;64851;50.232;20.364;2023-12-28T11:20:08;21.20;;;10.70;;
76117;SDS011;64851;50.232;20.364;2023-12-28T11:22:44;18.60;;;10.00;;
76117;SDS011;64851;50.232;20.364;2023-12-28T11:25:34;19.10;;;8.70;;
76117;SDS011;64851;50.232;20.364;2023-12-28T11:28:10;16.60;;;9.10;;
76117;SDS011;64851;50.232;20.364;2023-12-28T11:30:58;19.00;;;9.90;;
76117;SDS011;64851;50.232;20.364;2023-12-28T11:33:33;17.70;;;9.40;;
76117;SDS011;64851;50.232;20.364;2023-12-28T11:36:35;18.10;;;10.00;;
76117;SDS011;64851;50.232;20.364;2023-12-28T11:39:32;17.50;;;9.80;;
76117;SDS011;64851;50.232;20.364;2023-12-28T11:42:08;18.50;;;8.90;;
76117;SDS011;64851;50.232;20.364;2023-12-28T11:44:59;15.10;;;8.10;;
76117;SDS011;64851;50.232;20.364;2023-12-28T11:47:34;15.30;;;8.20;;
76117;SDS011;64851;50.232;20.364;2023-12-28T11:50:29;17.20;;;8.50;;
76117;SDS011;64851;50.232;20.364;2023-12-28T11:53:27;19.50;;;9.40;;
76117;SDS011;64851;50.232;20.364;2023-12-28T11:56:02;15.40;;;9.00;;
76117;SDS011;64851;50.232;20.364;2023-12-28T11:58:52;13.80;;;8.30;;
76117;SDS011;64851;50.232;20.364;2023-12-28T12:01:33;14.50;;;8.80;;
76117;SDS011;64851;50.232;20.364;2023-12-28T12:04:25;14.30;;;8.70;;
76117;SDS011;64851;50.232;20.364;2023-12-28T12:07:03;16.10;;;8.30;;
76117;SDS011;64851;50.232;20.364;2023-12-28T12:09:58;17.30;;;8.30;;
76117;SDS011;64851;50.232;20.364;2023-12-28T12:12:53;15.40;;;8.60;;
76117;SDS011;64851;50.232;20.364;2023-12-28T12:15:50;15.50;;;8.50;;
76117;SDS011;64851;50.232;20.364;2023-12-28T12:18:25;13.50;;;7.20;;
76117;SDS011;64851;50.232;20.364;2023-12-28T12:21:13;15.00;;;9.40;;
76117;SDS011;64851;50.232;20.364;2023-12-28T12:23:48;15.50;;;8.20;;
76117;SDS011;64851;50.232;20.364;2023-12-28T12:26:43;18.10;;;8.90;;
76117;SDS011;64851;50.232;20.364;2023-12-28T12:29:18;16.70;;;8.20;;
76117;SDS011;64851;50.232;20.364;2023-12-28T12:32:13;19.10;;;9.90;;
76117;SDS011;64851;50.232;20.364;2023-12-28T12:34:48;17.90;;;9.90;;
76117;SDS011;64851;50.232;20.364;2023-12-28T12:37:44;18.10;;;11.20;;
76117;SDS011;64851;50.232;20.364;2023-12-28T12:40:39;11.90;;;6.90;;
76117;SDS011;64851;50.232;20.364;2023-12-28T12:43:14;15.90;;;8.30;;
76117;SDS011;64851;50.232;20.364;2023-12-28T12:46:04;13.90;;;7.70;;
76117;SDS011;64851;50.232;20.364;2023-12-28T12:48:39;11.80;;;7.10;;
76117;SDS011;64851;50.232;20.364;2023-12-28T12:51:27;12.00;;;5.50;;
76117;SDS011;64851;50.232;20.364;2023-12-28T12:54:03;7.90;;;3.70;;
76117;SDS011;64851;50.232;20.364;2023-12-28T12:56:58;11.50;;;6.20;;
76117;SDS011;64851;50.232;20.364;2023-12-28T12:59:41;10.40;;;4.80;;
76117;SDS011;64851;50.232;20.364;2023-12-28T13:02:31;11.00;;;5.80;;
76117;SDS011;64851;50.232;20.364;2023-12-28T13:05:08;11.60;;;6.40;;
76117;SDS011;64851;50.232;20.364;2023-12-28T13:07:56;10.30;;;5.60;;
76117;SDS011;64851;50.232;20.364;2023-12-28T13:10:31;11.40;;;5.90;;
76117;SDS011;64851;50.232;20.364;2023-12-28T13:13:19;10.60;;;5.90;;
76117;SDS011;64851;50.232;20.364;2023-12-28T13:15:54;10.90;;;5.40;;
76117;SDS011;64851;50.232;20.364;2023-12-28T13:18:42;10.80;;;5.70;;
76117;SDS011;64851;50.232;20.364;2023-12-28T13:21:17;11.50;;;6.20;;
76117;SDS011;64851;50.232;20.364;2023-12-28T13:24:05;14.20;;;6.30;;
76117;SDS011;64851;50.232;20.364;2023-12-28T13:26:40;10.70;;;5.90;;
76117;SDS011;64851;50.232;20.364;2023-12-28T13:29:35;12.50;;;6.30;;
76117;SDS011;64851;50.232;20.364;2023-12-28T13:32:31;12.00;;;5.80;;
76117;SDS011;64851;50.232;20.364;2023-12-28T13:35:15;12.20;;;6.40;;
76117;SDS011;64851;50.232;20.364;2023-12-28T13:38:10;12.90;;;6.00;;
76117;SDS011;64851;50.232;20.364;2023-12-28T13:41:05;12.90;;;6.00;;
76117;SDS011;64851;50.232;20.364;2023-12-28T13:44:00;11.40;;;5.90;;
76117;SDS011;64851;50.232;20.364;2023-12-28T13:46:38;12.80;;;6.60;;
76117;SDS011;64851;50.232;20.364;2023-12-28T13:49:27;12.30;;;6.20;;
76117;SDS011;64851;50.232;20.364;2023-12-28T13:52:08;10.10;;;5.00;;
76117;SDS011;64851;50.232;20.364;2023-12-28T13:54:50;13.10;;;6.40;;
76117;SDS011;64851;50.232;20.364;2023-12-28T14:00:30;12.00;;;7.30;;
76117;SDS011;64851;50.232;20.364;2023-12-28T14:03:06;11.40;;;6.50;;
76117;SDS011;64851;50.232;20.364;2023-12-28T14:05:56;12.20;;;6.10;;
76117;SDS011;64851;50.232;20.364;2023-12-28T14:08:30;10.40;;;6.30;;
76117;SDS011;64851;50.232;20.364;2023-12-28T14:11:25;13.40;;;5.70;;
76117;SDS011;64851;50.232;20.364;2023-12-28T14:14:00;12.90;;;6.60;;
76117;SDS011;64851;50.232;20.364;2023-12-28T14:16:55;12.10;;;6.40;;
76117;SDS011;64851;50.232;20.364;2023-12-28T14:19:30;10.40;;;5.40;;
76117;SDS011;64851;50.232;20.364;2023-12-28T14:22:19;9.20;;;5.90;;
76117;SDS011;64851;50.232;20.364;2023-12-28T14:24:54;13.00;;;5.80;;
76117;SDS011;64851;50.232;20.364;2023-12-28T14:27:42;12.40;;;6.20;;
76117;SDS011;64851;50.232;20.364;2023-12-28T14:30:19;9.20;;;5.60;;
76117;SDS011;64851;50.232;20.364;2023-12-28T14:33:14;7.30;;;4.80;;
76117;SDS011;64851;50.232;20.364;2023-12-28T14:36:14;10.00;;;5.20;;
76117;SDS011;64851;50.232;20.364;2023-12-28T14:38:52;9.50;;;5.00;;
76117;SDS011;64851;50.232;20.364;2023-12-28T14:41:48;10.50;;;5.40;;
76117;SDS011;64851;50.232;20.364;2023-12-28T14:44:45;11.80;;;5.50;;
76117;SDS011;64851;50.232;20.364;2023-12-28T14:47:20;11.90;;;5.70;;
76117;SDS011;64851;50.232;20.364;2023-12-28T14:50:15;14.10;;;7.10;;
76117;SDS011;64851;50.232;20.364;2023-12-28T14:52:50;14.50;;;6.90;;
76117;SDS011;64851;50.232;20.364;2023-12-28T14:55:38;11.50;;;6.90;;
76117;SDS011;64851;50.232;20.364;2023-12-28T14:58:13;11.60;;;6.10;;
76117;SDS011;64851;50.232;20.364;2023-12-28T15:01:02;13.20;;;6.30;;
76117;SDS011;64851;50.232;20.364;2023-12-28T15:03:37;16.20;;;7.40;;
76117;SDS011;64851;50.232;20.364;2023-12-28T15:06:32;15.80;;;6.70;;
76117;SDS011;64851;50.232;20.364;2023-12-28T15:09:27;16.30;;;7.60;;
76117;SDS011;64851;50.232;20.364;2023-12-28T15:12:02;13.50;;;6.60;;
76117;SDS011;64851;50.232;20.364;2023-12-28T15:14:50;15.60;;;7.50;;
76117;SDS011;64851;50.232;20.364;2023-12-28T15:17:25;16.20;;;8.00;;
76117;SDS011;64851;50.232;20.364;2023-12-28T15:20:13;18.30;;;8.80;;
76117;SDS011;64851;50.232;20.364;2023-12-28T15:22:49;13.40;;;6.90;;
76117;SDS011;64851;50.232;20.364;2023-12-28T15:25:37;16.10;;;7.60;;
76117;SDS011;64851;50.232;20.364;2023-12-28T15:28:12;11.40;;;7.10;;
76117;SDS011;64851;50.232;20.364;2023-12-28T15:31:02;15.10;;;7.70;;
76117;SDS011;64851;50.232;20.364;2023-12-28T15:33:38;14.80;;;7.20;;
76117;SDS011;64851;50.232;20.364;2023-12-28T15:36:33;13.30;;;6.50;;
76117;SDS011;64851;50.232;20.364;2023-12-28T15:39:07;11.20;;;6.30;;
76117;SDS011;64851;50.232;20.364;2023-12-28T15:41:56;11.70;;;5.80;;
76117;SDS011;64851;50.232;20.364;2023-12-28T15:44:30;13.00;;;5.70;;
76117;SDS011;64851;50.232;20.364;2023-12-28T15:47:20;13.90;;;6.40;;
76117;SDS011;64851;50.232;20.364;2023-12-28T15:50:00;12.10;;;6.20;;
76117;SDS011;64851;50.232;20.364;2023-12-28T15:52:52;12.50;;;6.30;;
76117;SDS011;64851;50.232;20.364;2023-12-28T15:55:33;16.30;;;6.80;;
76117;SDS011;64851;50.232;20.364;2023-12-28T15:58:27;13.20;;;6.10;;
76117;SDS011;64851;50.232;20.364;2023-12-28T16:01:08;15.90;;;6.10;;
76117;SDS011;64851;50.232;20.364;2023-12-28T16:04:00;15.40;;;7.70;;
76117;SDS011;64851;50.232;20.364;2023-12-28T16:06:42;15.80;;;8.20;;
76117;SDS011;64851;50.232;20.364;2023-12-28T16:09:30;14.50;;;6.10;;
76117;SDS011;64851;50.232;20.364;2023-12-28T16:12:05;14.00;;;7.20;;